sensor_id;sensor_type;location;lat;lon;timestamp;temperature;humidity
40932;DHT22;36257;46.052;12.540;2022-07-10T00:00:28;20.80;75.90
40932;DHT22;36257;46.052;12.540;2022-07-10T00:02:55;20.80;75.90
40932;DHT22;36257;46.052;12.540;2022-07-10T00:05:21;20.80;75.70
40932;DHT22;36257;46.052;12.540;2022-07-10T00:07:48;20.70;76.10
40932;DHT22;36257;46.052;12.540;2022-07-10T00:10:14;20.60;76.20
40932;DHT22;36257;46.052;12.540;2022-07-10T00:12:39;20.60;76.50
40932;DHT22;36257;46.052;12.540;2022-07-10T00:15:06;20.50;76.70
40932;DHT22;36257;46.052;12.540;2022-07-10T00:17:32;20.50;76.90
40932;DHT22;36257;46.052;12.540;2022-07-10T00:19:58;20.50;76.20
40932;DHT22;36257;46.052;12.540;2022-07-10T00:22:24;20.50;76.50
40932;DHT22;36257;46.052;12.540;2022-07-10T00:24:50;20.50;76.50
40932;DHT22;36257;46.052;12.540;2022-07-10T00:27:19;20.50;76.80
40932;DHT22;36257;46.052;12.540;2022-07-10T00:29:45;20.50;76.70
40932;DHT22;36257;46.052;12.540;2022-07-10T00:32:10;20.50;76.90
40932;DHT22;36257;46.052;12.540;2022-07-10T00:34:36;20.50;76.70
40932;DHT22;36257;46.052;12.540;2022-07-10T00:37:03;20.50;76.80
40932;DHT22;36257;46.052;12.540;2022-07-10T00:39:29;20.50;76.90
40932;DHT22;36257;46.052;12.540;2022-07-10T00:41:55;20.50;77.00
40932;DHT22;36257;46.052;12.540;2022-07-10T00:44:21;20.50;77.00
40932;DHT22;36257;46.052;12.540;2022-07-10T00:46:46;20.50;76.50
40932;DHT22;36257;46.052;12.540;2022-07-10T00:49:12;20.60;76.00
40932;DHT22;36257;46.052;12.540;2022-07-10T00:51:38;20.60;76.00
40932;DHT22;36257;46.052;12.540;2022-07-10T00:54:05;20.70;76.30
40932;DHT22;36257;46.052;12.540;2022-07-10T00:56:31;20.70;76.40
40932;DHT22;36257;46.052;12.540;2022-07-10T00:58:57;20.70;77.00
40932;DHT22;36257;46.052;12.540;2022-07-10T01:01:23;20.70;77.00
40932;DHT22;36257;46.052;12.540;2022-07-10T01:03:49;20.70;76.70
40932;DHT22;36257;46.052;12.540;2022-07-10T01:06:15;20.70;76.60
40932;DHT22;36257;46.052;12.540;2022-07-10T01:08:42;20.70;76.50
40932;DHT22;36257;46.052;12.540;2022-07-10T01:11:09;20.80;76.70
40932;DHT22;36257;46.052;12.540;2022-07-10T01:13:35;20.80;76.90
40932;DHT22;36257;46.052;12.540;2022-07-10T01:16:01;20.80;76.70
40932;DHT22;36257;46.052;12.540;2022-07-10T01:18:26;20.80;76.70
40932;DHT22;36257;46.052;12.540;2022-07-10T01:20:53;20.80;77.20
40932;DHT22;36257;46.052;12.540;2022-07-10T01:23:19;20.80;77.50
40932;DHT22;36257;46.052;12.540;2022-07-10T01:25:45;20.80;78.00
40932;DHT22;36257;46.052;12.540;2022-07-10T01:28:11;20.80;78.20
40932;DHT22;36257;46.052;12.540;2022-07-10T01:30:37;20.80;78.10
40932;DHT22;36257;46.052;12.540;2022-07-10T01:33:02;20.70;78.10
40932;DHT22;36257;46.052;12.540;2022-07-10T01:35:28;20.80;77.80
40932;DHT22;36257;46.052;12.540;2022-07-10T01:37:54;20.80;77.60
40932;DHT22;36257;46.052;12.540;2022-07-10T01:40:19;20.80;77.50
40932;DHT22;36257;46.052;12.540;2022-07-10T01:42:46;20.80;77.00
40932;DHT22;36257;46.052;12.540;2022-07-10T01:45:11;20.80;77.20
40932;DHT22;36257;46.052;12.540;2022-07-10T01:47:37;20.80;77.00
40932;DHT22;36257;46.052;12.540;2022-07-10T01:50:04;20.80;77.00
40932;DHT22;36257;46.052;12.540;2022-07-10T01:52:30;20.80;77.50
40932;DHT22;36257;46.052;12.540;2022-07-10T01:54:56;20.80;77.60
40932;DHT22;36257;46.052;12.540;2022-07-10T01:57:21;20.80;77.80
40932;DHT22;36257;46.052;12.540;2022-07-10T01:59:47;20.80;78.00
40932;DHT22;36257;46.052;12.540;2022-07-10T02:02:13;20.80;78.10
40932;DHT22;36257;46.052;12.540;2022-07-10T02:04:38;20.80;78.30
40932;DHT22;36257;46.052;12.540;2022-07-10T02:07:11;20.80;78.50
40932;DHT22;36257;46.052;12.540;2022-07-10T02:09:38;20.70;78.70
40932;DHT22;36257;46.052;12.540;2022-07-10T02:12:08;20.70;79.00
40932;DHT22;36257;46.052;12.540;2022-07-10T02:14:34;20.60;79.00
40932;DHT22;36257;46.052;12.540;2022-07-10T02:16:59;20.60;79.00
40932;DHT22;36257;46.052;12.540;2022-07-10T02:19:25;20.70;79.00
40932;DHT22;36257;46.052;12.540;2022-07-10T02:21:51;20.70;78.80
40932;DHT22;36257;46.052;12.540;2022-07-10T02:24:17;20.70;78.80
40932;DHT22;36257;46.052;12.540;2022-07-10T02:26:43;20.70;78.50
40932;DHT22;36257;46.052;12.540;2022-07-10T02:29:09;20.70;78.60
40932;DHT22;36257;46.052;12.540;2022-07-10T02:31:35;20.70;79.10
40932;DHT22;36257;46.052;12.540;2022-07-10T02:34:09;20.70;79.00
40932;DHT22;36257;46.052;12.540;2022-07-10T02:36:35;20.60;79.10
40932;DHT22;36257;46.052;12.540;2022-07-10T02:39:02;20.60;79.10
40932;DHT22;36257;46.052;12.540;2022-07-10T02:41:27;20.60;79.30
40932;DHT22;36257;46.052;12.540;2022-07-10T02:43:53;20.60;79.30
40932;DHT22;36257;46.052;12.540;2022-07-10T02:46:18;20.50;79.30
40932;DHT22;36257;46.052;12.540;2022-07-10T02:48:44;20.50;79.40
40932;DHT22;36257;46.052;12.540;2022-07-10T02:51:10;20.40;79.40
40932;DHT22;36257;46.052;12.540;2022-07-10T02:53:35;20.40;79.50
40932;DHT22;36257;46.052;12.540;2022-07-10T02:56:01;20.40;79.30
40932;DHT22;36257;46.052;12.540;2022-07-10T02:58:27;20.30;79.40
40932;DHT22;36257;46.052;12.540;2022-07-10T03:00:53;20.30;79.90
40932;DHT22;36257;46.052;12.540;2022-07-10T03:03:19;20.20;80.10
40932;DHT22;36257;46.052;12.540;2022-07-10T03:05:45;20.20;80.60
40932;DHT22;36257;46.052;12.540;2022-07-10T03:08:11;20.20;80.60
40932;DHT22;36257;46.052;12.540;2022-07-10T03:10:37;20.20;81.00
40932;DHT22;36257;46.052;12.540;2022-07-10T03:13:02;20.20;81.00
40932;DHT22;36257;46.052;12.540;2022-07-10T03:15:28;20.20;81.00
40932;DHT22;36257;46.052;12.540;2022-07-10T03:17:54;20.10;81.30
40932;DHT22;36257;46.052;12.540;2022-07-10T03:20:19;20.10;80.90
40932;DHT22;36257;46.052;12.540;2022-07-10T03:22:45;20.10;80.80
40932;DHT22;36257;46.052;12.540;2022-07-10T03:25:11;20.10;80.80
40932;DHT22;36257;46.052;12.540;2022-07-10T03:27:37;20.10;80.70
40932;DHT22;36257;46.052;12.540;2022-07-10T03:30:04;20.10;80.40
40932;DHT22;36257;46.052;12.540;2022-07-10T03:32:30;20.20;80.30
40932;DHT22;36257;46.052;12.540;2022-07-10T03:34:55;20.10;80.60
40932;DHT22;36257;46.052;12.540;2022-07-10T03:37:21;20.10;80.50
40932;DHT22;36257;46.052;12.540;2022-07-10T03:39:47;20.20;80.60
40932;DHT22;36257;46.052;12.540;2022-07-10T03:42:12;20.20;80.50
40932;DHT22;36257;46.052;12.540;2022-07-10T03:44:38;20.10;80.50
40932;DHT22;36257;46.052;12.540;2022-07-10T03:47:03;20.10;80.40
40932;DHT22;36257;46.052;12.540;2022-07-10T03:49:29;20.10;80.50
40932;DHT22;36257;46.052;12.540;2022-07-10T03:51:59;20.10;80.50
40932;DHT22;36257;46.052;12.540;2022-07-10T03:54:25;20.00;80.50
40932;DHT22;36257;46.052;12.540;2022-07-10T03:56:51;20.00;80.80
40932;DHT22;36257;46.052;12.540;2022-07-10T03:59:35;19.90;81.20
40932;DHT22;36257;46.052;12.540;2022-07-10T04:02:00;20.00;81.70
40932;DHT22;36257;46.052;12.540;2022-07-10T04:04:26;20.00;81.40
40932;DHT22;36257;46.052;12.540;2022-07-10T04:06:53;19.90;81.30
40932;DHT22;36257;46.052;12.540;2022-07-10T04:09:18;19.90;81.50
40932;DHT22;36257;46.052;12.540;2022-07-10T04:11:44;19.90;81.20
40932;DHT22;36257;46.052;12.540;2022-07-10T04:14:10;20.00;81.10
40932;DHT22;36257;46.052;12.540;2022-07-10T04:16:35;20.00;80.80
40932;DHT22;36257;46.052;12.540;2022-07-10T04:19:01;20.00;80.60
40932;DHT22;36257;46.052;12.540;2022-07-10T04:21:26;20.00;80.90
40932;DHT22;36257;46.052;12.540;2022-07-10T04:23:52;20.00;81.20
40932;DHT22;36257;46.052;12.540;2022-07-10T04:26:18;20.00;81.20
40932;DHT22;36257;46.052;12.540;2022-07-10T04:28:43;20.00;81.70
40932;DHT22;36257;46.052;12.540;2022-07-10T04:31:09;20.00;81.50
40932;DHT22;36257;46.052;12.540;2022-07-10T04:33:35;20.00;81.40
40932;DHT22;36257;46.052;12.540;2022-07-10T04:36:00;20.00;81.50
40932;DHT22;36257;46.052;12.540;2022-07-10T04:38:26;20.00;81.30
40932;DHT22;36257;46.052;12.540;2022-07-10T04:40:52;20.00;81.40
40932;DHT22;36257;46.052;12.540;2022-07-10T04:43:17;20.10;81.30
40932;DHT22;36257;46.052;12.540;2022-07-10T04:45:43;20.10;81.50
40932;DHT22;36257;46.052;12.540;2022-07-10T04:48:08;20.10;81.40
40932;DHT22;36257;46.052;12.540;2022-07-10T04:50:34;20.20;81.70
40932;DHT22;36257;46.052;12.540;2022-07-10T04:53:00;20.20;81.60
40932;DHT22;36257;46.052;12.540;2022-07-10T04:55:25;20.30;81.90
40932;DHT22;36257;46.052;12.540;2022-07-10T04:57:51;20.30;81.80
40932;DHT22;36257;46.052;12.540;2022-07-10T05:00:17;20.40;81.50
40932;DHT22;36257;46.052;12.540;2022-07-10T05:02:42;20.40;81.40
40932;DHT22;36257;46.052;12.540;2022-07-10T05:05:08;20.40;81.20
40932;DHT22;36257;46.052;12.540;2022-07-10T05:07:34;20.50;81.00
40932;DHT22;36257;46.052;12.540;2022-07-10T05:10:00;20.60;80.60
40932;DHT22;36257;46.052;12.540;2022-07-10T05:12:26;20.70;80.70
40932;DHT22;36257;46.052;12.540;2022-07-10T05:14:51;20.70;81.00
40932;DHT22;36257;46.052;12.540;2022-07-10T05:17:17;20.80;81.40
40932;DHT22;36257;46.052;12.540;2022-07-10T05:19:43;20.80;81.70
40932;DHT22;36257;46.052;12.540;2022-07-10T05:22:09;20.90;81.20
40932;DHT22;36257;46.052;12.540;2022-07-10T05:24:36;20.90;81.70
40932;DHT22;36257;46.052;12.540;2022-07-10T05:27:02;21.00;82.10
40932;DHT22;36257;46.052;12.540;2022-07-10T05:29:28;21.10;81.60
40932;DHT22;36257;46.052;12.540;2022-07-10T05:31:53;21.10;82.10
40932;DHT22;36257;46.052;12.540;2022-07-10T05:34:19;21.20;81.00
40932;DHT22;36257;46.052;12.540;2022-07-10T05:36:45;21.20;81.00
40932;DHT22;36257;46.052;12.540;2022-07-10T05:39:10;21.30;81.60
40932;DHT22;36257;46.052;12.540;2022-07-10T05:41:36;21.30;81.70
40932;DHT22;36257;46.052;12.540;2022-07-10T05:44:02;21.40;81.60
40932;DHT22;36257;46.052;12.540;2022-07-10T05:46:28;21.50;81.40
40932;DHT22;36257;46.052;12.540;2022-07-10T05:48:54;21.50;80.70
40932;DHT22;36257;46.052;12.540;2022-07-10T05:51:19;21.60;81.50
40932;DHT22;36257;46.052;12.540;2022-07-10T05:53:45;21.70;81.00
40932;DHT22;36257;46.052;12.540;2022-07-10T05:56:11;21.90;80.60
40932;DHT22;36257;46.052;12.540;2022-07-10T05:58:36;22.10;79.90
40932;DHT22;36257;46.052;12.540;2022-07-10T06:01:02;22.30;76.60
40932;DHT22;36257;46.052;12.540;2022-07-10T06:03:28;22.50;75.40
40932;DHT22;36257;46.052;12.540;2022-07-10T06:05:54;22.80;75.20
40932;DHT22;36257;46.052;12.540;2022-07-10T06:08:20;23.10;74.80
40932;DHT22;36257;46.052;12.540;2022-07-10T06:10:46;23.30;75.40
40932;DHT22;36257;46.052;12.540;2022-07-10T06:13:12;23.40;72.70
40932;DHT22;36257;46.052;12.540;2022-07-10T06:15:38;23.40;73.50
40932;DHT22;36257;46.052;12.540;2022-07-10T06:18:04;23.50;73.50
40932;DHT22;36257;46.052;12.540;2022-07-10T06:20:30;23.60;73.00
40932;DHT22;36257;46.052;12.540;2022-07-10T06:22:57;23.80;73.30
40932;DHT22;36257;46.052;12.540;2022-07-10T06:25:23;23.80;72.10
40932;DHT22;36257;46.052;12.540;2022-07-10T06:27:48;24.00;71.90
40932;DHT22;36257;46.052;12.540;2022-07-10T06:30:18;24.10;72.50
40932;DHT22;36257;46.052;12.540;2022-07-10T06:32:44;24.10;71.40
40932;DHT22;36257;46.052;12.540;2022-07-10T06:35:10;24.20;72.00
40932;DHT22;36257;46.052;12.540;2022-07-10T06:37:36;24.40;70.90
40932;DHT22;36257;46.052;12.540;2022-07-10T06:40:02;24.50;70.00
40932;DHT22;36257;46.052;12.540;2022-07-10T06:42:28;24.70;71.10
40932;DHT22;36257;46.052;12.540;2022-07-10T06:44:54;24.80;69.50
40932;DHT22;36257;46.052;12.540;2022-07-10T06:47:20;24.90;69.70
40932;DHT22;36257;46.052;12.540;2022-07-10T06:50:05;25.00;70.00
40932;DHT22;36257;46.052;12.540;2022-07-10T06:52:32;25.20;70.30
40932;DHT22;36257;46.052;12.540;2022-07-10T06:54:59;25.40;69.80
40932;DHT22;36257;46.052;12.540;2022-07-10T06:57:25;25.40;69.10
40932;DHT22;36257;46.052;12.540;2022-07-10T06:59:50;25.30;69.20
40932;DHT22;36257;46.052;12.540;2022-07-10T07:02:17;25.30;69.90
40932;DHT22;36257;46.052;12.540;2022-07-10T07:04:43;25.30;69.30
40932;DHT22;36257;46.052;12.540;2022-07-10T07:07:10;25.50;69.30
40932;DHT22;36257;46.052;12.540;2022-07-10T07:09:35;25.60;71.10
40932;DHT22;36257;46.052;12.540;2022-07-10T07:12:01;25.70;71.30
40932;DHT22;36257;46.052;12.540;2022-07-10T07:14:27;25.90;70.80
40932;DHT22;36257;46.052;12.540;2022-07-10T07:16:53;26.00;69.30
40932;DHT22;36257;46.052;12.540;2022-07-10T07:19:29;26.10;70.40
40932;DHT22;36257;46.052;12.540;2022-07-10T07:21:58;26.20;68.20
40932;DHT22;36257;46.052;12.540;2022-07-10T07:24:43;26.30;68.20
40932;DHT22;36257;46.052;12.540;2022-07-10T07:27:12;26.50;67.60
40932;DHT22;36257;46.052;12.540;2022-07-10T07:29:38;26.60;67.00
40932;DHT22;36257;46.052;12.540;2022-07-10T07:32:04;26.60;67.10
40932;DHT22;36257;46.052;12.540;2022-07-10T07:34:30;26.80;66.40
40932;DHT22;36257;46.052;12.540;2022-07-10T07:36:57;27.00;66.30
40932;DHT22;36257;46.052;12.540;2022-07-10T07:39:22;27.10;65.70
40932;DHT22;36257;46.052;12.540;2022-07-10T07:41:49;27.30;67.00
40932;DHT22;36257;46.052;12.540;2022-07-10T07:44:15;27.50;65.90
40932;DHT22;36257;46.052;12.540;2022-07-10T07:46:43;27.60;66.80
40932;DHT22;36257;46.052;12.540;2022-07-10T07:49:09;27.70;66.00
40932;DHT22;36257;46.052;12.540;2022-07-10T07:51:34;27.80;65.90
40932;DHT22;36257;46.052;12.540;2022-07-10T07:54:00;27.90;65.20
40932;DHT22;36257;46.052;12.540;2022-07-10T07:56:25;27.90;65.50
40932;DHT22;36257;46.052;12.540;2022-07-10T07:58:51;28.10;66.30
40932;DHT22;36257;46.052;12.540;2022-07-10T08:01:17;28.10;66.20
40932;DHT22;36257;46.052;12.540;2022-07-10T08:03:45;28.30;63.70
40932;DHT22;36257;46.052;12.540;2022-07-10T08:06:10;28.40;64.90
40932;DHT22;36257;46.052;12.540;2022-07-10T08:08:36;28.40;63.70
40932;DHT22;36257;46.052;12.540;2022-07-10T08:11:02;28.40;64.10
40932;DHT22;36257;46.052;12.540;2022-07-10T08:13:27;28.30;63.30
40932;DHT22;36257;46.052;12.540;2022-07-10T08:15:54;28.30;62.80
40932;DHT22;36257;46.052;12.540;2022-07-10T08:18:20;28.40;64.50
40932;DHT22;36257;46.052;12.540;2022-07-10T08:20:45;28.50;63.20
40932;DHT22;36257;46.052;12.540;2022-07-10T08:23:11;28.60;64.10
40932;DHT22;36257;46.052;12.540;2022-07-10T08:25:37;28.90;63.10
40932;DHT22;36257;46.052;12.540;2022-07-10T08:28:03;29.00;61.90
40932;DHT22;36257;46.052;12.540;2022-07-10T08:30:31;29.20;62.40
40932;DHT22;36257;46.052;12.540;2022-07-10T08:32:57;29.30;62.10
40932;DHT22;36257;46.052;12.540;2022-07-10T08:35:23;29.20;61.90
40932;DHT22;36257;46.052;12.540;2022-07-10T08:37:48;28.90;61.70
40932;DHT22;36257;46.052;12.540;2022-07-10T08:40:15;28.80;64.00
40932;DHT22;36257;46.052;12.540;2022-07-10T08:42:42;28.60;64.00
40932;DHT22;36257;46.052;12.540;2022-07-10T08:45:10;28.70;64.20
40932;DHT22;36257;46.052;12.540;2022-07-10T08:47:37;28.80;63.10
40932;DHT22;36257;46.052;12.540;2022-07-10T08:50:04;28.80;63.70
40932;DHT22;36257;46.052;12.540;2022-07-10T08:52:38;28.90;64.70
40932;DHT22;36257;46.052;12.540;2022-07-10T08:55:08;29.10;63.90
40932;DHT22;36257;46.052;12.540;2022-07-10T08:57:37;28.90;63.30
40932;DHT22;36257;46.052;12.540;2022-07-10T09:00:05;28.80;62.20
40932;DHT22;36257;46.052;12.540;2022-07-10T09:02:30;28.90;63.30
40932;DHT22;36257;46.052;12.540;2022-07-10T09:04:56;29.10;63.00
40932;DHT22;36257;46.052;12.540;2022-07-10T09:07:23;29.40;62.70
40932;DHT22;36257;46.052;12.540;2022-07-10T09:09:55;29.50;62.60
40932;DHT22;36257;46.052;12.540;2022-07-10T09:12:22;29.80;61.20
40932;DHT22;36257;46.052;12.540;2022-07-10T09:14:49;30.10;61.80
40932;DHT22;36257;46.052;12.540;2022-07-10T09:17:16;30.40;61.10
40932;DHT22;36257;46.052;12.540;2022-07-10T09:19:42;30.20;59.20
40932;DHT22;36257;46.052;12.540;2022-07-10T09:22:09;29.90;60.30
40932;DHT22;36257;46.052;12.540;2022-07-10T09:24:43;29.40;60.30
40932;DHT22;36257;46.052;12.540;2022-07-10T09:27:10;28.90;60.30
40932;DHT22;36257;46.052;12.540;2022-07-10T09:29:51;28.40;61.70
40932;DHT22;36257;46.052;12.540;2022-07-10T09:32:24;28.30;61.70
40932;DHT22;36257;46.052;12.540;2022-07-10T09:34:52;28.40;60.70
40932;DHT22;36257;46.052;12.540;2022-07-10T09:37:41;28.10;61.10
40932;DHT22;36257;46.052;12.540;2022-07-10T09:40:08;28.10;61.30
40932;DHT22;36257;46.052;12.540;2022-07-10T09:50:34;28.40;61.90
40932;DHT22;36257;46.052;12.540;2022-07-10T09:53:03;28.40;62.10
40932;DHT22;36257;46.052;12.540;2022-07-10T09:55:31;28.90;63.00
40932;DHT22;36257;46.052;12.540;2022-07-10T09:58:04;28.90;62.50
40932;DHT22;36257;46.052;12.540;2022-07-10T10:00:32;28.70;61.10
40932;DHT22;36257;46.052;12.540;2022-07-10T10:02:59;28.80;61.60
40932;DHT22;36257;46.052;12.540;2022-07-10T10:08:11;29.80;64.80
40932;DHT22;36257;46.052;12.540;2022-07-10T10:10:42;30.20;60.50
40932;DHT22;36257;46.052;12.540;2022-07-10T10:13:11;30.40;62.20
40932;DHT22;36257;46.052;12.540;2022-07-10T10:15:37;30.30;59.30
40932;DHT22;36257;46.052;12.540;2022-07-10T10:18:03;30.00;58.70
40932;DHT22;36257;46.052;12.540;2022-07-10T10:20:32;29.70;62.00
40932;DHT22;36257;46.052;12.540;2022-07-10T10:23:12;29.40;60.00
40932;DHT22;36257;46.052;12.540;2022-07-10T10:25:38;29.10;60.00
40932;DHT22;36257;46.052;12.540;2022-07-10T10:28:06;28.90;63.10
40932;DHT22;36257;46.052;12.540;2022-07-10T10:30:43;28.70;61.60
40932;DHT22;36257;46.052;12.540;2022-07-10T10:36:04;28.40;61.60
40932;DHT22;36257;46.052;12.540;2022-07-10T10:41:41;28.00;62.10
40932;DHT22;36257;46.052;12.540;2022-07-10T10:46:38;27.90;63.10
40932;DHT22;36257;46.052;12.540;2022-07-10T10:49:48;27.70;62.80
40932;DHT22;36257;46.052;12.540;2022-07-10T10:52:14;27.70;63.60
40932;DHT22;36257;46.052;12.540;2022-07-10T10:55:13;27.60;63.30
40932;DHT22;36257;46.052;12.540;2022-07-10T10:57:40;27.60;64.20
40932;DHT22;36257;46.052;12.540;2022-07-10T11:00:14;27.50;63.80
40932;DHT22;36257;46.052;12.540;2022-07-10T11:02:41;27.40;64.40
40932;DHT22;36257;46.052;12.540;2022-07-10T11:08:02;27.20;64.30
40932;DHT22;36257;46.052;12.540;2022-07-10T11:13:02;27.20;65.10
40932;DHT22;36257;46.052;12.540;2022-07-10T11:15:33;27.20;65.10
40932;DHT22;36257;46.052;12.540;2022-07-10T11:20:33;27.20;65.80
40932;DHT22;36257;46.052;12.540;2022-07-10T11:28:45;27.30;65.40
40932;DHT22;36257;46.052;12.540;2022-07-10T11:31:12;27.40;66.50
40932;DHT22;36257;46.052;12.540;2022-07-10T11:33:43;27.40;64.50
40932;DHT22;36257;46.052;12.540;2022-07-10T11:36:11;27.40;65.70
40932;DHT22;36257;46.052;12.540;2022-07-10T11:38:41;27.30;65.30
40932;DHT22;36257;46.052;12.540;2022-07-10T11:46:14;27.10;65.70
40932;DHT22;36257;46.052;12.540;2022-07-10T11:48:41;27.10;65.30
40932;DHT22;36257;46.052;12.540;2022-07-10T11:51:31;27.00;64.60
40932;DHT22;36257;46.052;12.540;2022-07-10T11:56:33;27.00;65.40
40932;DHT22;36257;46.052;12.540;2022-07-10T11:59:04;27.00;65.60
40932;DHT22;36257;46.052;12.540;2022-07-10T12:01:35;27.10;65.90
40932;DHT22;36257;46.052;12.540;2022-07-10T12:04:03;27.10;65.30
40932;DHT22;36257;46.052;12.540;2022-07-10T12:06:55;27.30;66.70
40932;DHT22;36257;46.052;12.540;2022-07-10T12:09:22;27.60;65.40
40932;DHT22;36257;46.052;12.540;2022-07-10T12:12:01;27.80;65.60
40932;DHT22;36257;46.052;12.540;2022-07-10T12:14:27;28.10;63.50
40932;DHT22;36257;46.052;12.540;2022-07-10T12:16:54;28.30;64.10
40932;DHT22;36257;46.052;12.540;2022-07-10T12:21:48;28.60;61.40
40932;DHT22;36257;46.052;12.540;2022-07-10T12:24:18;28.70;62.70
40932;DHT22;36257;46.052;12.540;2022-07-10T12:26:47;28.60;61.80
40932;DHT22;36257;46.052;12.540;2022-07-10T12:31:47;28.50;62.90
40932;DHT22;36257;46.052;12.540;2022-07-10T12:34:15;28.30;62.70
40932;DHT22;36257;46.052;12.540;2022-07-10T12:36:51;28.10;63.10
40932;DHT22;36257;46.052;12.540;2022-07-10T12:39:19;27.90;64.40
40932;DHT22;36257;46.052;12.540;2022-07-10T12:41:57;27.80;63.50
40932;DHT22;36257;46.052;12.540;2022-07-10T12:44:40;27.70;64.40
40932;DHT22;36257;46.052;12.540;2022-07-10T12:47:14;27.70;64.00
40932;DHT22;36257;46.052;12.540;2022-07-10T12:52:26;27.40;65.10
40932;DHT22;36257;46.052;12.540;2022-07-10T12:55:15;27.40;65.60
40932;DHT22;36257;46.052;12.540;2022-07-10T12:57:59;27.40;66.10
40932;DHT22;36257;46.052;12.540;2022-07-10T13:00:25;27.40;65.30
40932;DHT22;36257;46.052;12.540;2022-07-10T13:03:04;27.60;66.70
40932;DHT22;36257;46.052;12.540;2022-07-10T13:08:21;28.40;63.20
40932;DHT22;36257;46.052;12.540;2022-07-10T13:10:52;28.70;65.10
40932;DHT22;36257;46.052;12.540;2022-07-10T13:13:18;29.00;63.10
40932;DHT22;36257;46.052;12.540;2022-07-10T13:15:45;29.00;62.90
40932;DHT22;36257;46.052;12.540;2022-07-10T13:18:16;29.00;62.30
40932;DHT22;36257;46.052;12.540;2022-07-10T13:20:47;29.00;62.30
40932;DHT22;36257;46.052;12.540;2022-07-10T13:23:13;29.00;61.60
40932;DHT22;36257;46.052;12.540;2022-07-10T13:25:40;28.80;62.00
40932;DHT22;36257;46.052;12.540;2022-07-10T13:28:07;28.60;63.10
40932;DHT22;36257;46.052;12.540;2022-07-10T13:30:33;28.50;63.30
40932;DHT22;36257;46.052;12.540;2022-07-10T13:32:59;28.40;63.00
40932;DHT22;36257;46.052;12.540;2022-07-10T13:35:30;28.30;63.80
40932;DHT22;36257;46.052;12.540;2022-07-10T13:37:57;28.20;62.10
40932;DHT22;36257;46.052;12.540;2022-07-10T13:40:30;28.10;64.80
40932;DHT22;36257;46.052;12.540;2022-07-10T13:42:57;28.00;64.10
40932;DHT22;36257;46.052;12.540;2022-07-10T13:45:23;28.00;64.90
40932;DHT22;36257;46.052;12.540;2022-07-10T13:47:58;27.90;64.70
40932;DHT22;36257;46.052;12.540;2022-07-10T13:50:24;27.90;63.40
40932;DHT22;36257;46.052;12.540;2022-07-10T13:52:51;27.80;63.00
40932;DHT22;36257;46.052;12.540;2022-07-10T13:55:17;27.70;63.60
40932;DHT22;36257;46.052;12.540;2022-07-10T13:57:43;27.60;64.70
40932;DHT22;36257;46.052;12.540;2022-07-10T14:00:10;27.40;65.00
40932;DHT22;36257;46.052;12.540;2022-07-10T14:02:38;27.40;65.00
40932;DHT22;36257;46.052;12.540;2022-07-10T14:05:05;27.40;65.00
40932;DHT22;36257;46.052;12.540;2022-07-10T14:07:31;27.30;64.80
40932;DHT22;36257;46.052;12.540;2022-07-10T14:09:56;27.20;64.60
40932;DHT22;36257;46.052;12.540;2022-07-10T14:12:23;27.10;64.60
40932;DHT22;36257;46.052;12.540;2022-07-10T14:14:49;27.00;66.00
40932;DHT22;36257;46.052;12.540;2022-07-10T14:17:15;27.10;65.20
40932;DHT22;36257;46.052;12.540;2022-07-10T14:19:40;27.10;66.50
40932;DHT22;36257;46.052;12.540;2022-07-10T14:22:07;27.20;66.20
40932;DHT22;36257;46.052;12.540;2022-07-10T14:24:35;27.30;66.10
40932;DHT22;36257;46.052;12.540;2022-07-10T14:27:01;27.50;65.60
40932;DHT22;36257;46.052;12.540;2022-07-10T14:29:27;27.50;64.90
40932;DHT22;36257;46.052;12.540;2022-07-10T14:31:52;27.50;65.80
40932;DHT22;36257;46.052;12.540;2022-07-10T14:34:18;27.50;65.40
40932;DHT22;36257;46.052;12.540;2022-07-10T14:36:44;27.60;64.60
40932;DHT22;36257;46.052;12.540;2022-07-10T14:39:10;27.50;65.20
40932;DHT22;36257;46.052;12.540;2022-07-10T14:41:38;27.50;65.30
40932;DHT22;36257;46.052;12.540;2022-07-10T14:44:04;27.40;64.20
40932;DHT22;36257;46.052;12.540;2022-07-10T14:46:30;27.30;64.70
40932;DHT22;36257;46.052;12.540;2022-07-10T14:48:55;27.20;64.80
40932;DHT22;36257;46.052;12.540;2022-07-10T14:51:21;27.20;64.70
40932;DHT22;36257;46.052;12.540;2022-07-10T14:53:47;27.20;65.70
40932;DHT22;36257;46.052;12.540;2022-07-10T14:56:13;27.20;64.80
40932;DHT22;36257;46.052;12.540;2022-07-10T14:58:42;27.30;65.10
40932;DHT22;36257;46.052;12.540;2022-07-10T15:01:07;27.40;64.40
40932;DHT22;36257;46.052;12.540;2022-07-10T15:03:33;27.50;64.70
40932;DHT22;36257;46.052;12.540;2022-07-10T15:05:59;27.60;63.70
40932;DHT22;36257;46.052;12.540;2022-07-10T15:08:25;27.70;63.00
40932;DHT22;36257;46.052;12.540;2022-07-10T15:10:51;27.70;63.70
40932;DHT22;36257;46.052;12.540;2022-07-10T15:13:16;27.70;63.00
40932;DHT22;36257;46.052;12.540;2022-07-10T15:15:42;27.70;62.40
40932;DHT22;36257;46.052;12.540;2022-07-10T15:18:08;27.70;62.70
40932;DHT22;36257;46.052;12.540;2022-07-10T15:20:34;27.60;63.00
40932;DHT22;36257;46.052;12.540;2022-07-10T15:23:05;27.60;62.70
40932;DHT22;36257;46.052;12.540;2022-07-10T15:25:31;27.60;63.10
40932;DHT22;36257;46.052;12.540;2022-07-10T15:27:56;27.60;63.40
40932;DHT22;36257;46.052;12.540;2022-07-10T15:30:22;27.50;62.90
40932;DHT22;36257;46.052;12.540;2022-07-10T15:32:48;27.40;63.00
40932;DHT22;36257;46.052;12.540;2022-07-10T15:35:15;27.30;63.80
40932;DHT22;36257;46.052;12.540;2022-07-10T15:37:43;27.20;63.80
40932;DHT22;36257;46.052;12.540;2022-07-10T15:40:09;27.20;63.60
40932;DHT22;36257;46.052;12.540;2022-07-10T15:42:34;27.30;63.20
40932;DHT22;36257;46.052;12.540;2022-07-10T15:45:00;27.40;63.40
40932;DHT22;36257;46.052;12.540;2022-07-10T15:47:26;27.40;63.50
40932;DHT22;36257;46.052;12.540;2022-07-10T15:49:51;27.50;62.60
40932;DHT22;36257;46.052;12.540;2022-07-10T15:52:17;27.50;63.10
40932;DHT22;36257;46.052;12.540;2022-07-10T15:54:43;27.50;63.20
40932;DHT22;36257;46.052;12.540;2022-07-10T15:57:10;27.50;62.10
40932;DHT22;36257;46.052;12.540;2022-07-10T15:59:37;27.50;61.10
40932;DHT22;36257;46.052;12.540;2022-07-10T16:02:03;27.50;62.30
40932;DHT22;36257;46.052;12.540;2022-07-10T16:04:29;27.50;63.60
40932;DHT22;36257;46.052;12.540;2022-07-10T16:06:54;27.50;64.60